Lewis, Colorado
Current Conditions -  °F | °C
As of 2:53 AM on Tuesday 21 Oct 2014 (Local Time) from KCEZ Reporting Station
Overcast Overcast  
Wind Chill: 57°   Ceiling: 6500
Heat Index: 57°   Visibility: 10mi
Dew Point: 42°   Wind: 13mph
Humidity: 57%   Direction: 140°SE
Pressure: 30.15"   Gusts: NA
Location:  37.5°N, 108.66°W
Report Text: KCEZ 210853Z AUTO 14011KT 10SM OVC065 14/06 A3015 RMK AO2 SLP145 T01390056 50002
Loading
Personal Weather Stations






























Interactive Weather Map
Tropical Storm Tracking
New forecast layout! Learn more

10-Day Weather Forecast

Advertisements
Track Severe Weather on mobile